Time;durP1;ratioP1;P1;durP2;ratioP2;P2;SDS_P1;SDS_P2;PMS_P1;PMS_P2;Temp;Humidity;BMP_temperature;BMP_pressure;BME280_temperature;BME280_humidity;BME280_pressure;Samples;Min_cycle;Max_cycle;Signal;HPM_P1;HPM_P2
2023/10/11 00:01:58;;;;;;;19.75;7.80;;;;;;;;;;5053533;28;20080;-63
2023/10/11 00:04:24;;;;;;;18.45;8.05;;;;;;;;;;5053800;28;20412;-63
2023/10/11 00:06:51;;;;;;;16.83;7.47;;;;;;;;;;5053597;28;20041;-63
2023/10/11 00:09:17;;;;;;;17.77;7.78;;;;;;;;;;5053250;28;20047;-63
2023/10/11 00:11:43;;;;;;;16.17;9.02;;;;;;;;;;5053518;28;20106;-63
2023/10/11 00:14:09;;;;;;;17.42;8.00;;;;;;;;;;5053597;28;20041;-63
2023/10/11 00:16:35;;;;;;;16.42;7.60;;;;;;;;;;5052842;28;20041;-63
2023/10/11 00:19:09;;;;;;;20.58;8.65;;;;;;;;;;5053233;28;20051;-63
2023/10/11 00:21:40;;;;;;;17.02;8.27;;;;;;;;;;5053381;28;20076;-63
2023/10/11 00:24:07;;;;;;;15.83;8.43;;;;;;;;;;5053067;28;20083;-63
2023/10/11 00:26:40;;;;;;;16.98;8.05;;;;;;;;;;5053166;28;20290;-63
2023/10/11 00:29:09;;;;;;;20.95;9.15;;;;;;;;;;5052234;28;20041;-63
2023/10/11 00:31:35;;;;;;;17.88;10.45;;;;;;;;;;5052829;28;20049;-63
2023/10/11 00:34:03;;;;;;;17.80;9.23;;;;;;;;;;5053068;28;20032;-63
2023/10/11 00:36:30;;;;;;;19.95;9.77;;;;;;;;;;5034810;28;20056;-63
2023/10/11 00:38:56;;;;;;;16.20;9.20;;;;;;;;;;5052516;28;20045;-63
2023/10/11 00:41:25;;;;;;;21.00;9.95;;;;;;;;;;5052948;28;20040;-63
2023/10/11 00:43:52;;;;;;;22.50;9.43;;;;;;;;;;5053073;28;20143;-63
2023/10/11 00:46:19;;;;;;;18.70;9.98;;;;;;;;;;5052555;28;20132;-63
2023/10/11 00:48:57;;;;;;;18.02;9.60;;;;;;;;;;5052869;28;20044;-63
2023/10/11 00:51:23;;;;;;;21.17;10.63;;;;;;;;;;5052816;28;20037;-63
2023/10/11 00:53:50;;;;;;;31.00;10.65;;;;;;;;;;5052302;28;20057;-63
2023/10/11 00:56:20;;;;;;;22.98;10.68;;;;;;;;;;5052711;28;20041;-63
2023/10/11 00:58:47;;;;;;;22.80;10.25;;;;;;;;;;5052690;28;20487;-63
2023/10/11 01:01:14;;;;;;;22.88;10.45;;;;;;;;;;5052611;28;20652;-63
2023/10/11 01:03:41;;;;;;;22.00;10.98;;;;;;;;;;5052785;28;20041;-63
2023/10/11 01:06:10;;;;;;;21.77;9.95;;;;;;;;;;5052319;28;20049;-63
2023/10/11 01:08:40;;;;;;;26.98;10.48;;;;;;;;;;5051995;28;20045;-63
2023/10/11 01:11:13;;;;;;;23.23;11.20;;;;;;;;;;5052582;28;20076;-63
2023/10/11 01:13:40;;;;;;;21.95;10.85;;;;;;;;;;5052239;28;20048;-63
2023/10/11 01:16:10;;;;;;;26.90;12.18;;;;;;;;;;5034284;28;20045;-63
2023/10/11 01:18:37;;;;;;;24.75;11.40;;;;;;;;;;5052202;28;20083;-63
2023/10/11 01:21:03;;;;;;;23.55;11.65;;;;;;;;;;5052169;28;20044;-63
2023/10/11 01:23:29;;;;;;;24.55;11.90;;;;;;;;;;5052016;28;20043;-63
2023/10/11 01:25:55;;;;;;;26.58;13.00;;;;;;;;;;5051907;28;20052;-63
2023/10/11 01:28:22;;;;;;;24.63;12.32;;;;;;;;;;5052265;28;20044;-63
2023/10/11 01:30:51;;;;;;;23.38;12.63;;;;;;;;;;5051639;28;20053;-63
2023/10/11 01:33:18;;;;;;;24.05;13.77;;;;;;;;;;5051433;28;20049;-63
2023/10/11 01:35:48;;;;;;;23.45;12.32;;;;;;;;;;5050505;28;20045;-63
2023/10/11 01:38:17;;;;;;;25.58;12.73;;;;;;;;;;5051110;28;20048;-63
2023/10/11 01:40:43;;;;;;;28.65;12.57;;;;;;;;;;5051062;28;20403;-63
2023/10/11 01:43:10;;;;;;;24.75;13.30;;;;;;;;;;5050951;28;20044;-63
2023/10/11 01:45:39;;;;;;;29.63;13.88;;;;;;;;;;5050657;28;20041;-63
2023/10/11 01:48:05;;;;;;;27.38;13.70;;;;;;;;;;5050761;28;20098;-63
2023/10/11 01:50:33;;;;;;;25.80;12.43;;;;;;;;;;5050850;28;20044;-63
2023/10/11 01:52:59;;;;;;;27.75;13.77;;;;;;;;;;5050419;28;20056;-63
2023/10/11 01:55:25;;;;;;;33.53;14.68;;;;;;;;;;5050781;28;20045;-63
2023/10/11 01:57:51;;;;;;;31.58;14.68;;;;;;;;;;5050911;28;20175;-63
2023/10/11 02:00:24;;;;;;;30.08;14.77;;;;;;;;;;5050803;28;20041;-63
2023/10/11 02:02:56;;;;;;;28.02;14.80;;;;;;;;;;5051531;28;20044;-63
2023/10/11 02:05:23;;;;;;;29.00;15.63;;;;;;;;;;5051302;28;20044;-63
2023/10/11 02:07:50;;;;;;;29.98;15.27;;;;;;;;;;5051245;28;20041;-63
2023/10/11 02:10:25;;;;;;;31.38;15.48;;;;;;;;;;5051231;28;20041;-63
2023/10/11 02:12:52;;;;;;;27.23;15.02;;;;;;;;;;5050779;28;20041;-63
2023/10/11 02:15:29;;;;;;;30.83;16.00;;;;;;;;;;5050627;28;20044;-63
2023/10/11 02:17:58;;;;;;;32.78;15.70;;;;;;;;;;5051165;28;20052;-63
2023/10/11 02:20:24;;;;;;;30.25;15.57;;;;;;;;;;5050900;28;20048;-63
2023/10/11 02:22:51;;;;;;;37.78;14.90;;;;;;;;;;5051219;28;20099;-63
2023/10/11 02:25:18;;;;;;;34.25;16.00;;;;;;;;;;5051016;28;20033;-63
2023/10/11 02:27:44;;;;;;;28.67;15.95;;;;;;;;;;5050785;28;20045;-63
2023/10/11 02:30:19;;;;;;;29.80;15.02;;;;;;;;;;5051213;28;20048;-63
2023/10/11 02:32:45;;;;;;;31.02;15.40;;;;;;;;;;5050843;28;20048;-63
2023/10/11 02:35:14;;;;;;;30.27;15.15;;;;;;;;;;5050732;28;20037;-63
2023/10/11 02:37:45;;;;;;;34.42;15.63;;;;;;;;;;5050973;28;20045;-63
2023/10/11 02:40:11;;;;;;;33.83;15.20;;;;;;;;;;5051055;28;20479;-63
2023/10/11 02:42:37;;;;;;;30.50;15.93;;;;;;;;;;5050635;28;20480;-63
2023/10/11 02:45:07;;;;;;;34.90;16.75;;;;;;;;;;5051000;28;20099;-63
2023/10/11 02:47:36;;;;;;;33.30;16.35;;;;;;;;;;5050853;28;20059;-63
2023/10/11 02:50:07;;;;;;;32.20;16.55;;;;;;;;;;5050348;28;20063;-63
2023/10/11 02:52:36;;;;;;;29.90;16.35;;;;;;;;;;5052648;28;20073;-63
2023/10/11 02:55:17;;;;;;;35.83;16.70;;;;;;;;;;5054872;28;20045;-63
2023/10/11 02:57:43;;;;;;;27.90;15.77;;;;;;;;;;5054506;28;20487;-63
2023/10/11 03:00:21;;;;;;;29.52;15.60;;;;;;;;;;5054831;28;20041;-63
2023/10/11 03:02:56;;;;;;;33.55;15.55;;;;;;;;;;5054582;28;20045;-63
2023/10/11 03:05:27;;;;;;;33.50;15.80;;;;;;;;;;5054367;28;20040;-63
2023/10/11 03:08:13;;;;;;;32.25;15.65;;;;;;;;;;5054780;28;20136;-63
2023/10/11 03:10:43;;;;;;;29.05;15.10;;;;;;;;;;5054882;28;20437;-63
2023/10/11 03:13:10;;;;;;;31.50;15.10;;;;;;;;;;5054447;28;20131;-63
2023/10/11 03:15:38;;;;;;;31.58;14.68;;;;;;;;;;5054526;28;20446;-63
2023/10/11 03:18:06;;;;;;;33.70;15.30;;;;;;;;;;5054489;28;20122;-63
2023/10/11 03:20:36;;;;;;;35.63;16.20;;;;;;;;;;5054217;28;20084;-63
2023/10/11 03:23:10;;;;;;;36.65;14.82;;;;;;;;;;5054571;28;20391;-63
2023/10/11 03:25:38;;;;;;;34.25;15.25;;;;;;;;;;5054032;28;20037;-63
2023/10/11 03:28:04;;;;;;;32.80;14.93;;;;;;;;;;5054076;28;20052;-63
2023/10/11 03:30:35;;;;;;;34.03;15.30;;;;;;;;;;5054439;28;20049;-63
2023/10/11 03:33:02;;;;;;;35.83;15.38;;;;;;;;;;5054510;28;20442;-63
2023/10/11 03:35:33;;;;;;;31.60;15.15;;;;;;;;;;5053690;28;20044;-63
2023/10/11 03:38:00;;;;;;;27.65;13.75;;;;;;;;;;5054221;28;20048;-63
2023/10/11 03:43:18;;;;;;;32.40;14.15;;;;;;;;;;5022051;28;20049;-63
2023/10/11 03:45:59;;;;;;;32.20;14.05;;;;;;;;;;5053930;28;20059;-63
2023/10/11 03:48:29;;;;;;;28.05;13.25;;;;;;;;;;5053873;28;20045;-63
2023/10/11 03:50:58;;;;;;;26.05;14.52;;;;;;;;;;5053465;28;20076;-63
2023/10/11 03:53:24;;;;;;;37.15;14.35;;;;;;;;;;5053681;28;20056;-63
2023/10/11 03:55:50;;;;;;;29.67;13.35;;;;;;;;;;5053775;28;20048;-63
2023/10/11 03:58:32;;;;;;;33.45;14.25;;;;;;;;;;5053263;28;20033;-63
2023/10/11 04:03:39;;;;;;;25.40;13.05;;;;;;;;;;5053630;28;20098;-63
2023/10/11 04:06:13;;;;;;;42.88;14.75;;;;;;;;;;5053070;28;20053;-63
2023/10/11 04:09:00;;;;;;;32.53;13.55;;;;;;;;;;5053594;28;20045;-63
2023/10/11 04:11:54;;;;;;;29.23;13.52;;;;;;;;;;5053017;28;20037;-63
2023/10/11 04:19:54;;;;;;;29.35;13.05;;;;;;;;;;5053194;28;20522;-63
2023/10/11 04:22:27;;;;;;;29.13;13.52;;;;;;;;;;5053487;28;20066;-63
2023/10/11 04:24:53;;;;;;;33.20;13.63;;;;;;;;;;5052999;28;20044;-63
2023/10/11 04:29:52;;;;;;;33.05;13.70;;;;;;;;;;5053325;28;20056;-63
2023/10/11 04:35:21;;;;;;;30.58;12.77;;;;;;;;;;5052574;28;20048;-63
2023/10/11 04:37:54;;;;;;;37.67;15.20;;;;;;;;;;5051294;28;20049;-63
2023/10/11 04:40:35;;;;;;;37.55;15.55;;;;;;;;;;5040014;28;20041;-63
2023/10/11 04:43:04;;;;;;;32.33;14.38;;;;;;;;;;5052707;28;20041;-63
2023/10/11 04:45:44;;;;;;;32.38;15.20;;;;;;;;;;5052925;28;20091;-63
2023/10/11 04:48:18;;;;;;;33.63;15.27;;;;;;;;;;5053040;28;20051;-63
2023/10/11 04:50:47;;;;;;;32.20;14.85;;;;;;;;;;5034864;28;20087;-63
2023/10/11 04:53:19;;;;;;;29.60;14.32;;;;;;;;;;5052643;28;20580;-63
2023/10/11 04:55:58;;;;;;;31.90;14.20;;;;;;;;;;5052329;28;20048;-63
2023/10/11 04:58:49;;;;;;;29.45;14.40;;;;;;;;;;5052340;28;20041;-63
2023/10/11 05:01:22;;;;;;;33.33;14.88;;;;;;;;;;5052507;28;20045;-63
2023/10/11 05:03:58;;;;;;;30.85;14.55;;;;;;;;;;5052052;28;20045;-63
2023/10/11 05:06:31;;;;;;;40.13;15.10;;;;;;;;;;5052435;28;20080;-63
2023/10/11 05:09:12;;;;;;;33.08;13.95;;;;;;;;;;5052666;28;20080;-63
2023/10/11 05:11:43;;;;;;;34.83;15.73;;;;;;;;;;5052167;28;20080;-63
2023/10/11 05:16:59;;;;;;;36.47;15.07;;;;;;;;;;5052182;28;20534;-63
2023/10/11 05:19:28;;;;;;;37.97;15.70;;;;;;;;;;5051830;28;20049;-63
2023/10/11 05:21:55;;;;;;;34.05;15.43;;;;;;;;;;5052294;28;20494;-63
2023/10/11 05:27:09;;;;;;;31.98;14.80;;;;;;;;;;5051633;28;20517;-63
2023/10/11 05:29:52;;;;;;;33.45;15.80;;;;;;;;;;5051945;28;20049;-63
2023/10/11 05:32:23;;;;;;;35.22;15.73;;;;;;;;;;5052146;28;20052;-63
2023/10/11 05:35:11;;;;;;;34.05;15.00;;;;;;;;;;5051736;28;20041;-63
2023/10/11 05:51:28;;;;;;;41.83;17.02;;;;;;;;;;5051569;28;20039;-63
2023/10/11 05:53:59;;;;;;;40.65;16.42;;;;;;;;;;5051472;28;20064;-63
2023/10/11 05:56:25;;;;;;;42.00;15.77;;;;;;;;;;5051056;28;20395;-63
2023/10/11 05:58:52;;;;;;;38.20;16.63;;;;;;;;;;5051708;28;20044;-63
2023/10/11 06:01:21;;;;;;;38.10;16.90;;;;;;;;;;5051565;28;20090;-63
2023/10/11 06:03:51;;;;;;;40.95;17.25;;;;;;;;;;5050984;28;20099;-63
2023/10/11 06:06:24;;;;;;;37.90;16.27;;;;;;;;;;5051292;28;20614;-64
2023/10/11 06:08:50;;;;;;;34.90;15.88;;;;;;;;;;5051519;28;20376;-64
2023/10/11 06:11:18;;;;;;;39.40;17.35;;;;;;;;;;5050730;28;20138;-63
2023/10/11 06:13:45;;;;;;;31.48;16.13;;;;;;;;;;5051419;28;20055;-63
2023/10/11 06:16:14;;;;;;;40.40;17.75;;;;;;;;;;5051232;28;20049;-63
2023/10/11 06:18:42;;;;;;;37.10;17.13;;;;;;;;;;5050845;28;20445;-63
2023/10/11 06:21:30;;;;;;;37.50;15.98;;;;;;;;;;5051263;28;20044;-63
2023/10/11 06:24:05;;;;;;;42.13;17.25;;;;;;;;;;5051311;28;20071;-63
2023/10/11 06:29:04;;;;;;;38.30;17.52;;;;;;;;;;5051174;28;20045;-63
2023/10/11 06:31:34;;;;;;;35.03;17.50;;;;;;;;;;5033308;28;20053;-63
2023/10/11 06:34:15;;;;;;;41.38;18.20;;;;;;;;;;5050732;28;20048;-63
2023/10/11 06:36:41;;;;;;;38.05;16.98;;;;;;;;;;5050980;28;20371;-63
2023/10/11 06:39:33;;;;;;;44.85;19.45;;;;;;;;;;5050936;28;20033;-63
2023/10/11 06:41:53;;;;;;;45.72;19.40;;;;;;;;;;5050565;28;20203;-63
2023/10/11 06:44:22;;;;;;;47.80;20.20;;;;;;;;;;5051141;28;20053;-63
2023/10/11 06:46:50;;;;;;;44.05;18.55;;;;;;;;;;5050565;28;20045;-63
2023/10/11 06:49:17;;;;;;;40.88;19.25;;;;;;;;;;5051053;28;20051;-63
2023/10/11 06:51:43;;;;;;;41.75;18.63;;;;;;;;;;5050932;28;20421;-63
2023/10/11 06:54:09;;;;;;;43.20;18.92;;;;;;;;;;5050304;28;20053;-63
2023/10/11 06:56:38;;;;;;;39.55;18.70;;;;;;;;;;5050683;28;20049;-63
2023/10/11 06:59:04;;;;;;;39.35;18.48;;;;;;;;;;5032894;28;20041;-63
2023/10/11 07:01:30;;;;;;;49.67;19.35;;;;;;;;;;5050734;28;20048;-63
2023/10/11 07:03:57;;;;;;;46.75;19.13;;;;;;;;;;5050711;28;20037;-63
2023/10/11 07:06:23;;;;;;;47.28;18.83;;;;;;;;;;5050478;28;20048;-63
2023/10/11 07:08:49;;;;;;;37.97;17.48;;;;;;;;;;5050769;28;20441;-63
2023/10/11 07:11:36;;;;;;;50.67;20.08;;;;;;;;;;5050728;28;20495;-63
2023/10/11 07:14:14;;;;;;;35.58;18.45;;;;;;;;;;5047212;28;20041;-65
2023/10/11 07:16:42;;;;;;;47.10;19.90;;;;;;;;;;5042229;28;20081;-63
2023/10/11 07:19:09;;;;;;;40.50;19.33;;;;;;;;;;5050487;28;20040;-62
2023/10/11 07:22:12;;;;;;;45.38;19.35;;;;;;;;;;5045979;28;20463;-63
2023/10/11 07:26:57;;;;;;;47.85;19.48;;;;;;;;;;5049555;28;20060;-61
2023/10/11 07:29:23;;;;;;;42.92;18.98;;;;;;;;;;5048684;28;20045;-63
2023/10/11 07:31:50;;;;;;;45.63;20.02;;;;;;;;;;5049285;28;20142;-61
2023/10/11 07:34:23;;;;;;;45.28;18.88;;;;;;;;;;5049126;28;20037;-62
2023/10/11 07:36:51;;;;;;;41.58;18.90;;;;;;;;;;5048339;28;20049;-61
2023/10/11 07:41:52;;;;;;;45.35;20.08;;;;;;;;;;5044292;28;20853;-62
2023/10/11 07:44:18;;;;;;;40.45;19.30;;;;;;;;;;5041391;28;20083;-63
2023/10/11 07:46:48;;;;;;;43.40;21.10;;;;;;;;;;5068520;28;20044;-62
2023/10/11 07:49:23;;;;;;;42.80;20.58;;;;;;;;;;5061141;28;20044;-62
2023/10/11 07:51:53;;;;;;;51.17;20.80;;;;;;;;;;5053608;28;20044;-62
2023/10/11 07:54:20;;;;;;;38.88;19.40;;;;;;;;;;5035895;28;20084;-62
2023/10/11 07:56:47;;;;;;;45.70;21.20;;;;;;;;;;5058921;28;20037;-63
2023/10/11 07:59:13;;;;;;;53.83;21.58;;;;;;;;;;5055777;28;20059;-63
2023/10/11 08:01:42;;;;;;;51.13;20.55;;;;;;;;;;5051664;28;20111;-63
2023/10/11 08:04:12;;;;;;;42.25;20.63;;;;;;;;;;5056047;28;20064;-63
2023/10/11 08:06:40;;;;;;;54.70;22.55;;;;;;;;;;5047494;28;20490;-63
2023/10/11 08:09:18;;;;;;;47.88;20.98;;;;;;;;;;5052317;28;20048;-62
2023/10/11 08:11:56;;;;;;;47.55;21.05;;;;;;;;;;5046303;28;20045;-64
2023/10/11 08:14:22;;;;;;;51.80;22.88;;;;;;;;;;5046861;28;20053;-63
2023/10/11 08:16:52;;;;;;;49.28;22.25;;;;;;;;;;5051343;28;20124;-63
2023/10/11 08:19:19;;;;;;;48.42;21.52;;;;;;;;;;5051866;28;20040;-63
2023/10/11 08:21:54;;;;;;;54.17;22.98;;;;;;;;;;5045841;28;20083;-64
2023/10/11 08:24:30;;;;;;;56.05;23.13;;;;;;;;;;5068495;28;20064;-64
2023/10/11 08:27:08;;;;;;;45.47;22.58;;;;;;;;;;5053423;28;20049;-63
2023/10/11 08:29:35;;;;;;;54.33;22.95;;;;;;;;;;5052098;28;20049;-63
2023/10/11 08:32:06;;;;;;;50.95;25.20;;;;;;;;;;5052001;28;20041;-62
2023/10/11 08:34:32;;;;;;;54.75;25.10;;;;;;;;;;5051459;28;20048;-64
2023/10/11 08:36:58;;;;;;;54.65;22.75;;;;;;;;;;5052246;28;20095;-64
2023/10/11 08:42:16;;;;;;;59.38;25.08;;;;;;;;;;5043239;28;20060;-62
2023/10/11 08:44:46;;;;;;;53.55;25.02;;;;;;;;;;5052415;28;20392;-63
2023/10/11 08:47:13;;;;;;;54.65;25.23;;;;;;;;;;5050437;28;20375;-63
2023/10/11 08:49:48;;;;;;;60.60;26.52;;;;;;;;;;5016364;28;20041;-63
2023/10/11 08:52:19;;;;;;;59.88;23.70;;;;;;;;;;5047088;28;20092;-64
2023/10/11 08:54:45;;;;;;;54.33;24.23;;;;;;;;;;5050261;28;20053;-64
2023/10/11 08:57:13;;;;;;;52.28;23.70;;;;;;;;;;5051972;28;20049;-64
2023/10/11 08:59:57;;;;;;;49.88;23.05;;;;;;;;;;5051199;28;20052;-64
2023/10/11 09:02:26;;;;;;;54.78;24.13;;;;;;;;;;5046849;28;20149;-63
2023/10/11 09:05:24;;;;;;;49.80;24.70;;;;;;;;;;5051533;28;20033;-64
2023/10/11 09:07:51;;;;;;;61.40;23.73;;;;;;;;;;5026520;28;20365;-64
2023/10/11 09:10:33;;;;;;;55.15;23.45;;;;;;;;;;5049783;28;20095;-64
2023/10/11 09:13:01;;;;;;;51.30;23.27;;;;;;;;;;5048233;28;20051;-64
2023/10/11 09:15:43;;;;;;;50.83;22.15;;;;;;;;;;5050270;28;20133;-64
2023/10/11 09:18:14;;;;;;;46.30;19.50;;;;;;;;;;5028050;28;20120;-64
2023/10/11 09:20:55;;;;;;;39.97;18.05;;;;;;;;;;5050375;28;20040;-64
2023/10/11 09:23:34;;;;;;;40.65;17.77;;;;;;;;;;5049868;28;20130;-63
2023/10/11 09:26:01;;;;;;;42.05;17.50;;;;;;;;;;5046879;28;20163;-63
2023/10/11 09:28:28;;;;;;;40.20;16.63;;;;;;;;;;5050453;28;20048;-63
2023/10/11 09:31:15;;;;;;;39.10;17.42;;;;;;;;;;5050530;28;20389;-64
2023/10/11 09:33:50;;;;;;;37.10;16.38;;;;;;;;;;5051175;28;20392;-63
2023/10/11 09:36:19;;;;;;;38.05;15.77;;;;;;;;;;5049661;28;20076;-63
2023/10/11 09:38:54;;;;;;;39.58;16.30;;;;;;;;;;5050468;28;20047;-63
2023/10/11 09:41:22;;;;;;;30.73;14.57;;;;;;;;;;5049280;28;20045;-63
2023/10/11 09:43:48;;;;;;;31.40;14.93;;;;;;;;;;5050914;28;20048;-62
2023/10/11 09:46:14;;;;;;;32.00;13.02;;;;;;;;;;5049769;28;20032;-63
2023/10/11 09:48:41;;;;;;;30.30;12.65;;;;;;;;;;5049090;28;20043;-63
2023/10/11 09:51:13;;;;;;;23.92;12.30;;;;;;;;;;5050371;28;20045;-64
2023/10/11 09:53:49;;;;;;;26.95;11.77;;;;;;;;;;5045933;28;20527;-64
2023/10/11 09:56:36;;;;;;;19.63;9.63;;;;;;;;;;5049682;28;20136;-64
2023/10/11 09:59:08;;;;;;;19.58;9.27;;;;;;;;;;5050573;28;20037;-64
2023/10/11 10:01:38;;;;;;;22.73;9.15;;;;;;;;;;5049554;28;20052;-62
2023/10/11 10:04:07;;;;;;;22.02;9.07;;;;;;;;;;5050553;28;20044;-63
2023/10/11 10:06:33;;;;;;;17.02;8.73;;;;;;;;;;5046398;28;20473;-63
2023/10/11 10:12:09;;;;;;;23.10;8.98;;;;;;;;;;5051034;28;20089;-63
2023/10/11 10:14:41;;;;;;;20.95;8.57;;;;;;;;;;5049380;28;20068;-62
2023/10/11 10:17:11;;;;;;;21.83;8.32;;;;;;;;;;5048700;28;20152;-63
2023/10/11 10:19:43;;;;;;;17.20;8.00;;;;;;;;;;5051015;28;20501;-64
2023/10/11 10:22:31;;;;;;;19.00;8.18;;;;;;;;;;5048659;28;20112;-64
2023/10/11 10:25:18;;;;;;;18.60;7.70;;;;;;;;;;5048708;28;20049;-63
2023/10/11 10:27:45;;;;;;;15.43;6.88;;;;;;;;;;5030658;28;20144;-64
2023/10/11 10:30:16;;;;;;;17.77;7.60;;;;;;;;;;5044500;28;20079;-62
2023/10/11 10:33:01;;;;;;;15.73;6.57;;;;;;;;;;5049981;28;20041;-64
2023/10/11 10:35:36;;;;;;;15.65;6.38;;;;;;;;;;5049553;28;20144;-63
2023/10/11 10:38:04;;;;;;;18.25;6.75;;;;;;;;;;5048571;28;20408;-65
2023/10/11 10:40:30;;;;;;;11.70;6.05;;;;;;;;;;5050653;28;20076;-64
2023/10/11 10:43:19;;;;;;;16.85;7.25;;;;;;;;;;5049103;28;20107;-64
2023/10/11 10:45:59;;;;;;;13.15;6.05;;;;;;;;;;5047626;28;20498;-64
2023/10/11 10:48:30;;;;;;;18.20;6.43;;;;;;;;;;5047347;28;20182;-64
2023/10/11 10:51:06;;;;;;;12.77;6.95;;;;;;;;;;5027386;28;20784;-64
2023/10/11 10:53:38;;;;;;;12.27;6.47;;;;;;;;;;5049653;28;20526;-63
2023/10/11 10:56:04;;;;;;;21.00;6.93;;;;;;;;;;5049554;28;20603;-63
2023/10/11 10:58:30;;;;;;;32.20;7.53;;;;;;;;;;5048763;28;20372;-64
2023/10/11 11:00:59;;;;;;;15.65;7.00;;;;;;;;;;5049307;28;20548;-64
2023/10/11 11:03:32;;;;;;;15.93;7.03;;;;;;;;;;5048994;28;20098;-64
2023/10/11 11:05:59;;;;;;;13.30;5.72;;;;;;;;;;5031393;28;20048;-64
2023/10/11 11:08:37;;;;;;;14.75;5.78;;;;;;;;;;5049730;28;20037;-63
2023/10/11 11:11:19;;;;;;;12.07;5.80;;;;;;;;;;5049655;28;20093;-64
2023/10/11 11:13:47;;;;;;;;;;;;;;;;;;5070359;28;20123;-65
2023/10/11 11:16:20;;;;;;;10.43;5.40;;;;;;;;;;5052941;28;19916;-65
2023/10/11 11:18:47;;;;;;;12.23;4.85;;;;;;;;;;5052627;28;20073;-64
2023/10/11 11:21:20;;;;;;;15.57;4.97;;;;;;;;;;5035040;28;20075;-64
2023/10/11 11:23:50;;;;;;;14.85;5.10;;;;;;;;;;5052891;28;20033;-63
2023/10/11 11:26:17;;;;;;;15.02;4.95;;;;;;;;;;5052432;28;20144;-63
2023/10/11 11:28:44;;;;;;;12.77;4.50;;;;;;;;;;5052418;28;20056;-63
2023/10/11 11:34:05;;;;;;;12.48;4.90;;;;;;;;;;5053846;28;20087;-63
2023/10/11 11:36:31;;;;;;;11.93;4.68;;;;;;;;;;5051477;28;20045;-63
2023/10/11 11:41:48;;;;;;;8.23;4.90;;;;;;;;;;5033029;28;20042;-63
2023/10/11 11:44:20;;;;;;;13.23;4.82;;;;;;;;;;5043451;28;20106;-63
2023/10/11 11:46:48;;;;;;;;;;;;;;;;;;5046933;28;20041;-63
2023/10/11 11:49:15;;;;;;;13.57;4.47;;;;;;;;;;5052338;28;20386;-63
2023/10/11 11:51:41;;;;;;;13.00;4.88;;;;;;;;;;5046355;28;20398;-63
2023/10/11 11:54:16;;;;;;;8.10;4.22;;;;;;;;;;5038710;28;20046;-63
2023/10/11 11:56:43;;;;;;;12.02;4.72;;;;;;;;;;5040801;28;20597;-63
2023/10/11 11:59:17;;;;;;;9.57;4.35;;;;;;;;;;5033559;28;20060;-63
2023/10/11 12:01:52;;;;;;;12.20;4.40;;;;;;;;;;5050185;28;20604;-63
2023/10/11 12:04:22;;;;;;;7.63;3.53;;;;;;;;;;5052118;28;20041;-63
2023/10/11 12:06:48;;;;;;;13.30;4.25;;;;;;;;;;5052227;28;20045;-63
2023/10/11 12:09:21;;;;;;;13.02;3.80;;;;;;;;;;5052067;28;20041;-63
2023/10/11 12:11:50;;;;;;;12.20;3.85;;;;;;;;;;5052331;28;20438;-63
2023/10/11 12:14:16;;;;;;;9.73;3.72;;;;;;;;;;5051701;28;20076;-63
2023/10/11 12:16:42;;;;;;;6.40;3.10;;;;;;;;;;5045976;28;20455;-63
2023/10/11 12:19:11;;;;;;;9.70;3.92;;;;;;;;;;5035202;28;20076;-63
2023/10/11 12:21:37;;;;;;;10.32;3.83;;;;;;;;;;5048731;28;20499;-63
2023/10/11 12:24:10;;;;;;;8.98;3.70;;;;;;;;;;5048058;28;20454;-63
2023/10/11 12:26:40;;;;;;;8.85;3.42;;;;;;;;;;5033536;28;20053;-63
2023/10/11 12:29:08;;;;;;;13.23;4.43;;;;;;;;;;5047771;28;20411;-65
2023/10/11 12:31:38;;;;;;;13.52;4.35;;;;;;;;;;5032291;28;20056;-64
2023/10/11 12:34:09;;;;;;;13.88;4.07;;;;;;;;;;5050267;28;20049;-64
2023/10/11 12:36:39;;;;;;;12.40;4.22;;;;;;;;;;5050675;28;20466;-64
2023/10/11 12:39:20;;;;;;;9.00;3.80;;;;;;;;;;5050385;28;20096;-64
2023/10/11 12:41:49;;;;;;;10.48;3.65;;;;;;;;;;5050385;28;20099;-64
2023/10/11 12:44:19;;;;;;;10.57;3.78;;;;;;;;;;5046344;28;20665;-65
2023/10/11 12:46:45;;;;;;;11.07;3.67;;;;;;;;;;5048177;28;20482;-65
2023/10/11 12:49:14;;;;;;;8.95;3.50;;;;;;;;;;5051058;28;20041;-64
2023/10/11 12:51:46;;;;;;;8.18;3.67;;;;;;;;;;5048035;28;20098;-65
2023/10/11 12:54:13;;;;;;;;;;;;;;;;;;5028958;28;20061;-65
2023/10/11 12:56:42;;;;;;;10.82;4.20;;;;;;;;;;5049891;28;19928;-63
2023/10/11 12:59:16;;;;;;;12.40;3.47;;;;;;;;;;5050758;28;20453;-64
2023/10/11 13:01:49;;;;;;;8.63;3.50;;;;;;;;;;5050377;28;20049;-63
2023/10/11 13:04:23;;;;;;;14.70;3.85;;;;;;;;;;5051730;28;20124;-64
2023/10/11 13:06:50;;;;;;;7.63;3.80;;;;;;;;;;5049992;28;20067;-63
2023/10/11 13:09:18;;;;;;;9.73;3.13;;;;;;;;;;5040384;28;20041;-64
2023/10/11 13:11:45;;;;;;;7.40;3.50;;;;;;;;;;5050532;28;20049;-64
2023/10/11 13:14:20;;;;;;;9.23;4.03;;;;;;;;;;5050487;28;20041;-64
2023/10/11 13:16:58;;;;;;;10.15;3.30;;;;;;;;;;5050718;28;20041;-63
2023/10/11 13:19:24;;;;;;;8.05;3.45;;;;;;;;;;5048810;28;20045;-63
2023/10/11 13:21:53;;;;;;;8.50;3.58;;;;;;;;;;5026160;28;20155;-63
2023/10/11 13:24:23;;;;;;;6.95;3.20;;;;;;;;;;5035072;28;20041;-63
2023/10/11 13:26:56;;;;;;;12.40;3.65;;;;;;;;;;5041677;28;20049;-66
2023/10/11 13:29:23;;;;;;;13.02;3.22;;;;;;;;;;5053478;28;20093;-66
2023/10/11 13:31:53;;;;;;;6.60;2.88;;;;;;;;;;5047547;28;20040;-64
2023/10/11 13:34:19;;;;;;;8.32;3.17;;;;;;;;;;5036865;28;20187;-64
2023/10/11 13:36:45;;;;;;;8.50;2.90;;;;;;;;;;5034030;28;20144;-63
2023/10/11 13:39:26;;;;;;;7.38;2.90;;;;;;;;;;5045863;28;20479;-63
2023/10/11 13:41:56;;;;;;;6.53;2.53;;;;;;;;;;5062303;28;20395;-62
2023/10/11 13:44:23;;;;;;;9.63;3.15;;;;;;;;;;5046934;28;20034;-63
2023/10/11 13:46:51;;;;;;;7.70;2.58;;;;;;;;;;5037003;28;20227;-63
2023/10/11 13:49:24;;;;;;;9.70;2.80;;;;;;;;;;5049112;28;20051;-65
2023/10/11 13:51:54;;;;;;;6.47;3.28;;;;;;;;;;5049700;28;20045;-63
2023/10/11 13:57:18;;;;;;;6.60;3.10;;;;;;;;;;5022760;28;20077;-65
2023/10/11 13:59:46;;;;;;;9.60;2.95;;;;;;;;;;5043012;28;20099;-64
2023/10/11 14:04:49;;;;;;;9.02;2.95;;;;;;;;;;5048116;28;20079;-64
2023/10/11 14:07:37;;;;;;;7.97;2.85;;;;;;;;;;5049162;28;20487;-63
2023/10/11 14:10:13;;;;;;;8.75;3.20;;;;;;;;;;5050150;28;20058;-64
2023/10/11 14:12:40;;;;;;;6.07;2.47;;;;;;;;;;5049081;28;20049;-64
2023/10/11 14:15:17;;;;;;;10.57;3.35;;;;;;;;;;5048845;28;20051;-64
2023/10/11 14:17:49;;;;;;;10.45;2.67;;;;;;;;;;5049847;28;20040;-64
2023/10/11 14:20:24;;;;;;;8.95;2.55;;;;;;;;;;5044906;28;20094;-64
2023/10/11 14:22:56;;;;;;;7.05;2.80;;;;;;;;;;5046578;28;20491;-64
2023/10/11 14:25:24;;;;;;;;;;;;;;;;;;5039944;28;20033;-63
2023/10/11 14:27:50;;;;;;;9.25;2.30;;;;;;;;;;5049556;28;19978;-64
2023/10/11 14:30:18;;;;;;;7.35;2.67;;;;;;;;;;5050341;28;20067;-63
2023/10/11 14:32:45;;;;;;;6.78;2.60;;;;;;;;;;5050677;28;20047;-63
2023/10/11 14:35:11;;;;;;;9.45;2.95;;;;;;;;;;5050298;28;20045;-63
2023/10/11 14:37:41;;;;;;;6.72;2.70;;;;;;;;;;5050786;28;20041;-63
2023/10/11 14:40:17;;;;;;;10.18;2.95;;;;;;;;;;5050691;28;20124;-63
2023/10/11 14:42:46;;;;;;;9.05;2.97;;;;;;;;;;5050861;28;20083;-63
2023/10/11 14:45:16;;;;;;;12.32;3.08;;;;;;;;;;5050898;28;20047;-63
2023/10/11 14:47:45;;;;;;;13.73;3.83;;;;;;;;;;5050921;28;20041;-63
2023/10/11 14:50:25;;;;;;;6.43;3.30;;;;;;;;;;5055096;28;20107;-63
2023/10/11 14:52:52;;;;;;;6.22;3.28;;;;;;;;;;5054765;28;20065;-63
2023/10/11 14:55:20;;;;;;;9.20;2.95;;;;;;;;;;5054600;28;20091;-63
2023/10/11 14:57:49;;;;;;;7.20;3.33;;;;;;;;;;5054615;28;20041;-63
2023/10/11 15:00:16;;;;;;;8.27;2.92;;;;;;;;;;5054949;28;20091;-63
2023/10/11 15:02:45;;;;;;;11.85;3.13;;;;;;;;;;5054626;28;20411;-63
2023/10/11 15:05:18;;;;;;;11.20;3.35;;;;;;;;;;5054801;28;20546;-63
2023/10/11 15:07:48;;;;;;;8.38;3.30;;;;;;;;;;5036998;28;20124;-63
2023/10/11 15:10:14;;;;;;;9.18;3.25;;;;;;;;;;5054476;28;20362;-63
2023/10/11 15:12:44;;;;;;;10.65;3.90;;;;;;;;;;5054802;28;20112;-63
2023/10/11 15:15:10;;;;;;;10.05;3.63;;;;;;;;;;5054555;28;20075;-63
2023/10/11 15:17:36;;;;;;;10.82;3.67;;;;;;;;;;5054102;28;20045;-63
2023/10/11 15:20:09;;;;;;;8.35;3.60;;;;;;;;;;5054568;28;20045;-63
2023/10/11 15:22:35;;;;;;;11.77;3.78;;;;;;;;;;5053787;28;20537;-63
2023/10/11 15:25:01;;;;;;;15.07;4.38;;;;;;;;;;5053596;28;20045;-63
2023/10/11 15:27:27;;;;;;;11.00;3.95;;;;;;;;;;5054300;28;20711;-63
2023/10/11 15:29:53;;;;;;;10.57;3.67;;;;;;;;;;5053079;28;20037;-63
2023/10/11 15:32:23;;;;;;;12.40;3.28;;;;;;;;;;5052496;28;20041;-63
2023/10/11 15:34:52;;;;;;;12.18;3.80;;;;;;;;;;5034525;28;20041;-63
2023/10/11 15:37:18;;;;;;;11.88;4.25;;;;;;;;;;5052802;28;20094;-63
2023/10/11 15:39:45;;;;;;;12.10;3.60;;;;;;;;;;5052397;28;20384;-63
2023/10/11 15:42:12;;;;;;;10.98;3.78;;;;;;;;;;5052591;28;20517;-63
2023/10/11 15:44:38;;;;;;;13.48;4.40;;;;;;;;;;5052769;28;20045;-63
2023/10/11 15:47:04;;;;;;;9.90;3.92;;;;;;;;;;5052611;28;20496;-63